Time;durP1;ratioP1;P1;durP2;ratioP2;P2;SDS_P1;SDS_P2;PMS_P1;PMS_P2;Temp;Humidity;BMP_temperature;BMP_pressure;BME280_temperature;BME280_humidity;BME280_pressure;Samples;Min_cycle;Max_cycle;Signal;HPM_P1;HPM_P2
2019/05/17 00:00:44;;;;;;;36.55;24.4;;;;;;;4.51;81.20313;94575.75;;;;
2019/05/17 00:01:45;;;;;;;36.55;24.4;;;;;;;4.51;81.20313;94575.75;;;;
2019/05/17 00:02:47;;;;;;;36.55;24.4;;;;;;;4.51;81.20313;94575.75;;;;
2019/05/17 00:03:48;;;;;;;36.55;24.4;;;;;;;4.51;81.20313;94575.75;;;;
2019/05/17 00:04:49;;;;;;;36.55;24.4;;;;;;;4.51;81.20313;94575.75;;;;
2019/05/17 00:05:50;;;;;;;36.55;24.4;;;;;;;4.51;81.20313;94575.75;;;;
2019/05/17 00:06:51;;;;;;;36.55;24.4;;;;;;;4.51;81.20313;94575.75;;;;
2019/05/17 00:07:52;;;;;;;36.55;24.4;;;;;;;4.51;81.20313;94575.75;;;;
2019/05/17 00:08:53;;;;;;;36.55;24.4;;;;;;;4.51;81.20313;94575.75;;;;
2019/05/17 00:09:54;;;;;;;36.55;24.4;;;;;;;4.51;81.20313;94575.75;;;;
2019/05/17 00:10:55;;;;;;;36.55;24.4;;;;;;;4.51;81.20313;94575.75;;;;
2019/05/17 00:11:56;;;;;;;35.7;23.85;;;;;;;4.44;81.49414;94565.2;;;;
2019/05/17 00:12:57;;;;;;;35.7;23.85;;;;;;;4.44;81.49414;94565.2;;;;
2019/05/17 00:13:58;;;;;;;35.7;23.85;;;;;;;4.44;81.49414;94565.2;;;;
2019/05/17 00:14:59;;;;;;;35.7;23.85;;;;;;;4.44;81.49414;94565.2;;;;
2019/05/17 00:16:00;;;;;;;35.7;23.85;;;;;;;4.44;81.49414;94565.2;;;;
2019/05/17 00:17:02;;;;;;;35.7;23.85;;;;;;;4.44;81.49414;94565.2;;;;
2019/05/17 00:18:03;;;;;;;35.7;23.85;;;;;;;4.44;81.49414;94565.2;;;;
2019/05/17 00:19:04;;;;;;;35.7;23.85;;;;;;;4.44;81.49414;94565.2;;;;
2019/05/17 00:20:05;;;;;;;35.7;23.85;;;;;;;4.44;81.49414;94565.2;;;;
2019/05/17 00:21:06;;;;;;;35.7;23.85;;;;;;;4.44;81.49414;94565.2;;;;
2019/05/17 00:22:07;;;;;;;41.8;26.5;;;;;;;4.32;81.7041;94548.24;;;;
2019/05/17 00:23:08;;;;;;;41.8;26.5;;;;;;;4.32;81.7041;94548.24;;;;
2019/05/17 00:24:10;;;;;;;41.8;26.5;;;;;;;4.32;81.7041;94548.24;;;;
2019/05/17 00:25:11;;;;;;;41.8;26.5;;;;;;;4.32;81.7041;94548.24;;;;
2019/05/17 00:26:12;;;;;;;41.8;26.5;;;;;;;4.32;81.7041;94548.24;;;;
2019/05/17 00:27:13;;;;;;;41.8;26.5;;;;;;;4.32;81.7041;94548.24;;;;
2019/05/17 00:28:14;;;;;;;41.8;26.5;;;;;;;4.32;81.7041;94548.24;;;;
2019/05/17 00:29:15;;;;;;;41.8;26.5;;;;;;;4.32;81.7041;94548.24;;;;
2019/05/17 00:30:16;;;;;;;41.8;26.5;;;;;;;4.32;81.7041;94548.24;;;;
2019/05/17 00:31:18;;;;;;;41.8;26.5;;;;;;;4.32;81.7041;94548.24;;;;
2019/05/17 00:32:19;;;;;;;43.95001;27.8;;;;;;;4.33;82.01172;94540;;;;
2019/05/17 00:33:20;;;;;;;43.95001;27.8;;;;;;;4.33;82.01172;94540;;;;
2019/05/17 00:34:21;;;;;;;43.95001;27.8;;;;;;;4.33;82.01172;94540;;;;
2019/05/17 00:35:22;;;;;;;43.95001;27.8;;;;;;;4.33;82.01172;94540;;;;
2019/05/17 00:36:23;;;;;;;43.95001;27.8;;;;;;;4.33;82.01172;94540;;;;
2019/05/17 00:37:25;;;;;;;43.95001;27.8;;;;;;;4.33;82.01172;94540;;;;
2019/05/17 00:38:26;;;;;;;43.95001;27.8;;;;;;;4.33;82.01172;94540;;;;
2019/05/17 00:39:27;;;;;;;43.95001;27.8;;;;;;;4.33;82.01172;94540;;;;
2019/05/17 00:40:28;;;;;;;43.95001;27.8;;;;;;;4.33;82.01172;94540;;;;
2019/05/17 00:41:29;;;;;;;43.95001;27.8;;;;;;;4.33;82.01172;94540;;;;
2019/05/17 00:42:30;;;;;;;43.95001;27.8;;;;;;;4.33;82.01172;94540;;;;
2019/05/17 00:43:31;;;;;;;57;33.45;;;;;;;4.28;82.21094;94528.74;;;;
2019/05/17 00:44:32;;;;;;;57;33.45;;;;;;;4.28;82.21094;94528.74;;;;
2019/05/17 00:45:33;;;;;;;57;33.45;;;;;;;4.28;82.21094;94528.74;;;;
2019/05/17 00:46:35;;;;;;;57;33.45;;;;;;;4.28;82.21094;94528.74;;;;
2019/05/17 00:47:36;;;;;;;57;33.45;;;;;;;4.28;82.21094;94528.74;;;;
2019/05/17 00:48:37;;;;;;;57;33.45;;;;;;;4.28;82.21094;94528.74;;;;
2019/05/17 00:49:38;;;;;;;57;33.45;;;;;;;4.28;82.21094;94528.74;;;;
2019/05/17 00:50:39;;;;;;;57;33.45;;;;;;;4.28;82.21094;94528.74;;;;
2019/05/17 00:51:40;;;;;;;57;33.45;;;;;;;4.28;82.21094;94528.74;;;;
2019/05/17 00:52:41;;;;;;;57;33.45;;;;;;;4.28;82.21094;94528.74;;;;
2019/05/17 00:53:42;;;;;;;55.95;32.69999;;;;;;;4.31;82.56543;94519.76;;;;
2019/05/17 00:54:43;;;;;;;55.95;32.69999;;;;;;;4.31;82.56543;94519.76;;;;
2019/05/17 00:55:44;;;;;;;55.95;32.69999;;;;;;;4.31;82.56543;94519.76;;;;
2019/05/17 00:56:45;;;;;;;55.95;32.69999;;;;;;;4.31;82.56543;94519.76;;;;
2019/05/17 00:57:46;;;;;;;55.95;32.69999;;;;;;;4.31;82.56543;94519.76;;;;
2019/05/17 00:58:48;;;;;;;55.95;32.69999;;;;;;;4.31;82.56543;94519.76;;;;
2019/05/17 00:59:49;;;;;;;55.95;32.69999;;;;;;;4.31;82.56543;94519.76;;;;
2019/05/17 01:00:50;;;;;;;55.95;32.69999;;;;;;;4.31;82.56543;94519.76;;;;
2019/05/17 01:01:51;;;;;;;55.95;32.69999;;;;;;;4.31;82.56543;94519.76;;;;
2019/05/17 01:02:52;;;;;;;55.95;32.69999;;;;;;;4.31;82.56543;94519.76;;;;
2019/05/17 01:03:53;;;;;;;55.95;32.69999;;;;;;;4.31;82.56543;94519.76;;;;
2019/05/17 01:04:54;;;;;;;47.6;30.35;;;;;;;4.26;82.77734;94503.58;;;;
2019/05/17 01:05:55;;;;;;;47.6;30.35;;;;;;;4.26;82.77734;94503.58;;;;
2019/05/17 01:06:56;;;;;;;47.6;30.35;;;;;;;4.26;82.77734;94503.58;;;;
2019/05/17 01:07:58;;;;;;;47.6;30.35;;;;;;;4.26;82.77734;94503.58;;;;
2019/05/17 01:08:59;;;;;;;47.6;30.35;;;;;;;4.26;82.77734;94503.58;;;;
2019/05/17 01:10:00;;;;;;;47.6;30.35;;;;;;;4.26;82.77734;94503.58;;;;
2019/05/17 01:11:01;;;;;;;47.6;30.35;;;;;;;4.26;82.77734;94503.58;;;;
2019/05/17 01:12:02;;;;;;;47.6;30.35;;;;;;;4.26;82.77734;94503.58;;;;
2019/05/17 01:13:03;;;;;;;47.6;30.35;;;;;;;4.26;82.77734;94503.58;;;;
2019/05/17 01:14:04;;;;;;;47.6;30.35;;;;;;;4.26;82.77734;94503.58;;;;
2019/05/17 01:15:05;;;;;;;52.75;33.3;;;;;;;4.24;83.01563;94494.95;;;;
2019/05/17 01:16:08;;;;;;;52.75;33.3;;;;;;;4.24;83.01563;94494.95;;;;
2019/05/17 01:17:09;;;;;;;52.75;33.3;;;;;;;4.24;83.01563;94494.95;;;;
2019/05/17 01:18:10;;;;;;;52.75;33.3;;;;;;;4.24;83.01563;94494.95;;;;
2019/05/17 01:19:11;;;;;;;52.75;33.3;;;;;;;4.24;83.01563;94494.95;;;;
2019/05/17 01:20:12;;;;;;;52.75;33.3;;;;;;;4.24;83.01563;94494.95;;;;
2019/05/17 01:21:13;;;;;;;52.75;33.3;;;;;;;4.24;83.01563;94494.95;;;;
2019/05/17 01:22:16;;;;;;;52.75;33.3;;;;;;;4.24;83.01563;94494.95;;;;
2019/05/17 01:23:17;;;;;;;52.75;33.3;;;;;;;4.24;83.01563;94494.95;;;;
2019/05/17 01:24:18;;;;;;;52.75;33.3;;;;;;;4.24;83.01563;94494.95;;;;
2019/05/17 01:25:20;;;;;;;54.9;32.5;;;;;;;4.14;83.2373;94488.33;;;;
2019/05/17 01:26:21;;;;;;;54.9;32.5;;;;;;;4.14;83.2373;94488.33;;;;
2019/05/17 01:27:22;;;;;;;54.9;32.5;;;;;;;4.14;83.2373;94488.33;;;;
2019/05/17 01:28:23;;;;;;;54.9;32.5;;;;;;;4.14;83.2373;94488.33;;;;
2019/05/17 01:29:24;;;;;;;54.9;32.5;;;;;;;4.14;83.2373;94488.33;;;;
2019/05/17 01:30:25;;;;;;;54.9;32.5;;;;;;;4.14;83.2373;94488.33;;;;
2019/05/17 01:31:26;;;;;;;54.9;32.5;;;;;;;4.14;83.2373;94488.33;;;;
2019/05/17 01:32:27;;;;;;;54.9;32.5;;;;;;;4.14;83.2373;94488.33;;;;
2019/05/17 01:33:29;;;;;;;54.9;32.5;;;;;;;4.14;83.2373;94488.33;;;;
2019/05/17 01:34:30;;;;;;;54.9;32.5;;;;;;;4.14;83.2373;94488.33;;;;
2019/05/17 01:35:31;;;;;;;54.9;32.5;;;;;;;4.14;83.2373;94488.33;;;;
2019/05/17 01:36:32;;;;;;;48.55001;29.45;;;;;;;4.09;83.41797;94482;;;;
2019/05/17 01:37:33;;;;;;;48.55001;29.45;;;;;;;4.09;83.41797;94482;;;;
2019/05/17 01:38:34;;;;;;;48.55001;29.45;;;;;;;4.09;83.41797;94482;;;;
2019/05/17 01:39:35;;;;;;;48.55001;29.45;;;;;;;4.09;83.41797;94482;;;;
2019/05/17 01:40:36;;;;;;;48.55001;29.45;;;;;;;4.09;83.41797;94482;;;;
2019/05/17 01:41:38;;;;;;;48.55001;29.45;;;;;;;4.09;83.41797;94482;;;;
2019/05/17 01:42:39;;;;;;;48.55001;29.45;;;;;;;4.09;83.41797;94482;;;;
2019/05/17 01:43:40;;;;;;;48.55001;29.45;;;;;;;4.09;83.41797;94482;;;;
2019/05/17 01:44:41;;;;;;;48.55001;29.45;;;;;;;4.09;83.41797;94482;;;;
2019/05/17 01:45:42;;;;;;;48.55001;29.45;;;;;;;4.09;83.41797;94482;;;;
2019/05/17 01:46:43;;;;;;;50;30.45;;;;;;;3.92;83.55078;94483.56;;;;
2019/05/17 01:47:44;;;;;;;50;30.45;;;;;;;3.92;83.55078;94483.56;;;;
2019/05/17 01:48:45;;;;;;;50;30.45;;;;;;;3.92;83.55078;94483.56;;;;
2019/05/17 01:49:47;;;;;;;50;30.45;;;;;;;3.92;83.55078;94483.56;;;;
2019/05/17 01:50:49;;;;;;;50;30.45;;;;;;;3.92;83.55078;94483.56;;;;
2019/05/17 01:51:50;;;;;;;50;30.45;;;;;;;3.92;83.55078;94483.56;;;;
2019/05/17 01:52:51;;;;;;;50;30.45;;;;;;;3.92;83.55078;94483.56;;;;
2019/05/17 01:53:52;;;;;;;50;30.45;;;;;;;3.92;83.55078;94483.56;;;;
2019/05/17 01:54:53;;;;;;;50;30.45;;;;;;;3.92;83.55078;94483.56;;;;
2019/05/17 01:55:54;;;;;;;50;30.45;;;;;;;3.92;83.55078;94483.56;;;;
2019/05/17 01:56:55;;;;;;;49.5;29.95;;;;;;;3.82;83.79492;94481.34;;;;
2019/05/17 01:57:56;;;;;;;49.5;29.95;;;;;;;3.82;83.79492;94481.34;;;;
2019/05/17 01:58:58;;;;;;;49.5;29.95;;;;;;;3.82;83.79492;94481.34;;;;
2019/05/17 01:59:59;;;;;;;49.5;29.95;;;;;;;3.82;83.79492;94481.34;;;;
2019/05/17 02:01:00;;;;;;;49.5;29.95;;;;;;;3.82;83.79492;94481.34;;;;
2019/05/17 02:02:05;;;;;;;49.5;29.95;;;;;;;3.82;83.79492;94481.34;;;;
2019/05/17 02:03:08;;;;;;;49.5;29.95;;;;;;;3.82;83.79492;94481.34;;;;
2019/05/17 02:04:09;;;;;;;49.5;29.95;;;;;;;3.82;83.79492;94481.34;;;;
2019/05/17 02:05:10;;;;;;;49.5;29.95;;;;;;;3.82;83.79492;94481.34;;;;
2019/05/17 02:06:11;;;;;;;49.5;29.95;;;;;;;3.82;83.79492;94481.34;;;;
2019/05/17 02:07:12;;;;;;;49.5;29.95;;;;;;;3.82;83.79492;94481.34;;;;
2019/05/17 02:08:13;;;;;;;48.15;29.7;;;;;;;3.66;83.90039;94466.76;;;;
2019/05/17 02:09:15;;;;;;;48.15;29.7;;;;;;;3.66;83.90039;94466.76;;;;
2019/05/17 02:10:16;;;;;;;48.15;29.7;;;;;;;3.66;83.90039;94466.76;;;;
2019/05/17 02:11:17;;;;;;;48.15;29.7;;;;;;;3.66;83.90039;94466.76;;;;
2019/05/17 02:12:18;;;;;;;48.15;29.7;;;;;;;3.66;83.90039;94466.76;;;;
2019/05/17 02:13:19;;;;;;;48.15;29.7;;;;;;;3.66;83.90039;94466.76;;;;
2019/05/17 02:14:21;;;;;;;48.15;29.7;;;;;;;3.66;83.90039;94466.76;;;;
2019/05/17 02:15:22;;;;;;;48.15;29.7;;;;;;;3.66;83.90039;94466.76;;;;
2019/05/17 02:16:23;;;;;;;48.15;29.7;;;;;;;3.66;83.90039;94466.76;;;;
2019/05/17 02:17:24;;;;;;;48.15;29.7;;;;;;;3.66;83.90039;94466.76;;;;
2019/05/17 02:18:26;;;;;;;46.9;29.2;;;;;;;3.59;84.09766;94457.05;;;;
2019/05/17 02:19:27;;;;;;;46.9;29.2;;;;;;;3.59;84.09766;94457.05;;;;
2019/05/17 02:20:28;;;;;;;46.9;29.2;;;;;;;3.59;84.09766;94457.05;;;;
2019/05/17 02:21:29;;;;;;;46.9;29.2;;;;;;;3.59;84.09766;94457.05;;;;
2019/05/17 02:22:31;;;;;;;46.9;29.2;;;;;;;3.59;84.09766;94457.05;;;;
2019/05/17 02:23:32;;;;;;;46.9;29.2;;;;;;;3.59;84.09766;94457.05;;;;
2019/05/17 02:24:33;;;;;;;46.9;29.2;;;;;;;3.59;84.09766;94457.05;;;;
2019/05/17 02:25:34;;;;;;;46.9;29.2;;;;;;;3.59;84.09766;94457.05;;;;
2019/05/17 02:26:35;;;;;;;46.9;29.2;;;;;;;3.59;84.09766;94457.05;;;;
2019/05/17 02:27:36;;;;;;;46.9;29.2;;;;;;;3.59;84.09766;94457.05;;;;
2019/05/17 02:28:37;;;;;;;50;29.45;;;;;;;3.48;84.21191;94454.13;;;;
2019/05/17 02:29:38;;;;;;;50;29.45;;;;;;;3.48;84.21191;94454.13;;;;
2019/05/17 02:30:40;;;;;;;50;29.45;;;;;;;3.48;84.21191;94454.13;;;;
2019/05/17 02:31:41;;;;;;;50;29.45;;;;;;;3.48;84.21191;94454.13;;;;
2019/05/17 02:32:42;;;;;;;50;29.45;;;;;;;3.48;84.21191;94454.13;;;;
2019/05/17 02:33:43;;;;;;;50;29.45;;;;;;;3.48;84.21191;94454.13;;;;
2019/05/17 02:34:44;;;;;;;50;29.45;;;;;;;3.48;84.21191;94454.13;;;;
2019/05/17 02:35:45;;;;;;;50;29.45;;;;;;;3.48;84.21191;94454.13;;;;
2019/05/17 02:36:46;;;;;;;50;29.45;;;;;;;3.48;84.21191;94454.13;;;;
2019/05/17 02:37:47;;;;;;;50;29.45;;;;;;;3.48;84.21191;94454.13;;;;
2019/05/17 02:38:48;;;;;;;50;29.45;;;;;;;3.48;84.21191;94454.13;;;;
2019/05/17 02:39:50;;;;;;;46.95;28.7;;;;;;;3.45;84.36426;94445.73;;;;
2019/05/17 02:40:51;;;;;;;46.95;28.7;;;;;;;3.45;84.36426;94445.73;;;;
2019/05/17 02:41:52;;;;;;;46.95;28.7;;;;;;;3.45;84.36426;94445.73;;;;
2019/05/17 02:42:53;;;;;;;46.95;28.7;;;;;;;3.45;84.36426;94445.73;;;;
2019/05/17 02:43:54;;;;;;;46.95;28.7;;;;;;;3.45;84.36426;94445.73;;;;
2019/05/17 02:44:55;;;;;;;46.95;28.7;;;;;;;3.45;84.36426;94445.73;;;;
2019/05/17 02:45:57;;;;;;;46.95;28.7;;;;;;;3.45;84.36426;94445.73;;;;
2019/05/17 02:46:58;;;;;;;46.95;28.7;;;;;;;3.45;84.36426;94445.73;;;;
2019/05/17 02:47:59;;;;;;;46.95;28.7;;;;;;;3.45;84.36426;94445.73;;;;
2019/05/17 02:49:00;;;;;;;46.95;28.7;;;;;;;3.45;84.36426;94445.73;;;;
2019/05/17 02:50:01;;;;;;;50.45;30.45;;;;;;;3.32;84.44336;94442.61;;;;
2019/05/17 02:51:03;;;;;;;50.45;30.45;;;;;;;3.32;84.44336;94442.61;;;;
2019/05/17 02:52:04;;;;;;;50.45;30.45;;;;;;;3.32;84.44336;94442.61;;;;
2019/05/17 02:53:05;;;;;;;50.45;30.45;;;;;;;3.32;84.44336;94442.61;;;;
2019/05/17 02:54:06;;;;;;;50.45;30.45;;;;;;;3.32;84.44336;94442.61;;;;
2019/05/17 02:55:07;;;;;;;50.45;30.45;;;;;;;3.32;84.44336;94442.61;;;;
2019/05/17 02:56:08;;;;;;;50.45;30.45;;;;;;;3.32;84.44336;94442.61;;;;
2019/05/17 02:57:09;;;;;;;50.45;30.45;;;;;;;3.32;84.44336;94442.61;;;;
2019/05/17 02:58:10;;;;;;;50.45;30.45;;;;;;;3.32;84.44336;94442.61;;;;
2019/05/17 02:59:11;;;;;;;50.45;30.45;;;;;;;3.32;84.44336;94442.61;;;;
2019/05/17 03:00:12;;;;;;;50.45;30.45;;;;;;;3.32;84.44336;94442.61;;;;
2019/05/17 03:01:14;;;;;;;47.25;28.6;;;;;;;3.27;84.5791;94441.19;;;;
2019/05/17 03:02:15;;;;;;;47.25;28.6;;;;;;;3.27;84.5791;94441.19;;;;
2019/05/17 03:03:16;;;;;;;47.25;28.6;;;;;;;3.27;84.5791;94441.19;;;;
2019/05/17 03:04:17;;;;;;;47.25;28.6;;;;;;;3.27;84.5791;94441.19;;;;
2019/05/17 03:05:18;;;;;;;47.25;28.6;;;;;;;3.27;84.5791;94441.19;;;;
2019/05/17 03:06:19;;;;;;;47.25;28.6;;;;;;;3.27;84.5791;94441.19;;;;
2019/05/17 03:07:20;;;;;;;47.25;28.6;;;;;;;3.27;84.5791;94441.19;;;;
2019/05/17 03:08:21;;;;;;;47.25;28.6;;;;;;;3.27;84.5791;94441.19;;;;
2019/05/17 03:09:22;;;;;;;47.25;28.6;;;;;;;3.27;84.5791;94441.19;;;;
2019/05/17 03:10:23;;;;;;;47.25;28.6;;;;;;;3.27;84.5791;94441.19;;;;
2019/05/17 03:11:24;;;;;;;47.25;28.6;;;;;;;3.27;84.5791;94441.19;;;;
2019/05/17 03:12:25;;;;;;;47.25;28.6;;;;;;;3.27;84.5791;94441.19;;;;
2019/05/17 03:13:27;;;;;;;47.25;28.6;;;;;;;3.27;84.5791;94441.19;;;;
2019/05/17 03:14:28;;;;;;;47.25;28.6;;;;;;;3.27;84.5791;94441.19;;;;
2019/05/17 03:15:29;;;;;;;47.25;28.6;;;;;;;3.27;84.5791;94441.19;;;;
2019/05/17 03:16:30;;;;;;;47.25;28.6;;;;;;;3.27;84.5791;94441.19;;;;
2019/05/17 03:17:31;;;;;;;47.25;28.6;;;;;;;3.27;84.5791;94441.19;;;;
2019/05/17 03:18:32;;;;;;;47.25;28.6;;;;;;;3.27;84.5791;94441.19;;;;
2019/05/17 03:19:33;;;;;;;47.25;28.6;;;;;;;3.27;84.5791;94441.19;;;;
2019/05/17 03:20:34;;;;;;;47.25;28.6;;;;;;;3.27;84.5791;94441.19;;;;
2019/05/17 03:21:35;;;;;;;49.39999;29.65;;;;;;;3.13;84.85645;94431.49;;;;
2019/05/17 03:22:36;;;;;;;49.39999;29.65;;;;;;;3.13;84.85645;94431.49;;;;
2019/05/17 03:23:37;;;;;;;49.39999;29.65;;;;;;;3.13;84.85645;94431.49;;;;
2019/05/17 03:24:38;;;;;;;49.39999;29.65;;;;;;;3.13;84.85645;94431.49;;;;
2019/05/17 03:25:39;;;;;;;49.39999;29.65;;;;;;;3.13;84.85645;94431.49;;;;
2019/05/17 03:26:41;;;;;;;49.39999;29.65;;;;;;;3.13;84.85645;94431.49;;;;
2019/05/17 03:27:42;;;;;;;49.39999;29.65;;;;;;;3.13;84.85645;94431.49;;;;
2019/05/17 03:28:43;;;;;;;49.39999;29.65;;;;;;;3.13;84.85645;94431.49;;;;
2019/05/17 03:29:44;;;;;;;49.39999;29.65;;;;;;;3.13;84.85645;94431.49;;;;
2019/05/17 03:30:45;;;;;;;49.39999;29.65;;;;;;;3.13;84.85645;94431.49;;;;
2019/05/17 03:31:46;;;;;;;49.39999;29.65;;;;;;;3.13;84.85645;94431.49;;;;
2019/05/17 03:32:47;;;;;;;46.1;28.6;;;;;;;3.06;84.93652;94428.57;;;;
2019/05/17 03:33:48;;;;;;;46.1;28.6;;;;;;;3.06;84.93652;94428.57;;;;
2019/05/17 03:34:49;;;;;;;46.1;28.6;;;;;;;3.06;84.93652;94428.57;;;;
2019/05/17 03:35:50;;;;;;;46.1;28.6;;;;;;;3.06;84.93652;94428.57;;;;
2019/05/17 03:36:51;;;;;;;46.1;28.6;;;;;;;3.06;84.93652;94428.57;;;;
2019/05/17 03:37:52;;;;;;;46.1;28.6;;;;;;;3.06;84.93652;94428.57;;;;
2019/05/17 03:38:53;;;;;;;46.1;28.6;;;;;;;3.06;84.93652;94428.57;;;;
2019/05/17 03:39:54;;;;;;;46.1;28.6;;;;;;;3.06;84.93652;94428.57;;;;
2019/05/17 03:40:56;;;;;;;46.1;28.6;;;;;;;3.06;84.93652;94428.57;;;;
2019/05/17 03:41:57;;;;;;;46.1;28.6;;;;;;;3.06;84.93652;94428.57;;;;
2019/05/17 03:42:58;;;;;;;58.7;32.9;;;;;;;3.09;85.08008;94418.69;;;;
2019/05/17 03:43:59;;;;;;;58.7;32.9;;;;;;;3.09;85.08008;94418.69;;;;
2019/05/17 03:45:00;;;;;;;58.7;32.9;;;;;;;3.09;85.08008;94418.69;;;;
2019/05/17 03:46:01;;;;;;;58.7;32.9;;;;;;;3.09;85.08008;94418.69;;;;
2019/05/17 03:47:02;;;;;;;58.7;32.9;;;;;;;3.09;85.08008;94418.69;;;;
2019/05/17 03:48:03;;;;;;;58.7;32.9;;;;;;;3.09;85.08008;94418.69;;;;
2019/05/17 03:49:04;;;;;;;58.7;32.9;;;;;;;3.09;85.08008;94418.69;;;;
2019/05/17 03:50:06;;;;;;;58.7;32.9;;;;;;;3.09;85.08008;94418.69;;;;
2019/05/17 03:51:07;;;;;;;58.7;32.9;;;;;;;3.09;85.08008;94418.69;;;;
2019/05/17 03:52:08;;;;;;;58.7;32.9;;;;;;;3.09;85.08008;94418.69;;;;
2019/05/17 03:53:09;;;;;;;58.7;32.9;;;;;;;3.09;85.08008;94418.69;;;;
2019/05/17 03:54:10;;;;;;;68.3;36.75;;;;;;;3.15;85.12305;94419.69;;;;
2019/05/17 03:55:11;;;;;;;68.3;36.75;;;;;;;3.15;85.12305;94419.69;;;;
2019/05/17 03:56:12;;;;;;;68.3;36.75;;;;;;;3.15;85.12305;94419.69;;;;
2019/05/17 03:57:13;;;;;;;68.3;36.75;;;;;;;3.15;85.12305;94419.69;;;;
2019/05/17 03:58:14;;;;;;;68.3;36.75;;;;;;;3.15;85.12305;94419.69;;;;
2019/05/17 03:59:15;;;;;;;68.3;36.75;;;;;;;3.15;85.12305;94419.69;;;;
2019/05/17 04:00:16;;;;;;;68.3;36.75;;;;;;;3.15;85.12305;94419.69;;;;
2019/05/17 04:01:17;;;;;;;68.3;36.75;;;;;;;3.15;85.12305;94419.69;;;;
2019/05/17 04:02:19;;;;;;;68.3;36.75;;;;;;;3.15;85.12305;94419.69;;;;
2019/05/17 04:03:20;;;;;;;68.3;36.75;;;;;;;3.15;85.12305;94419.69;;;;
2019/05/17 04:04:21;;;;;;;68.3;36.75;;;;;;;3.15;85.12305;94419.69;;;;
2019/05/17 04:05:22;;;;;;;68.3;36.75;;;;;;;3.15;85.12305;94419.69;;;;
2019/05/17 04:06:23;;;;;;;68.3;36.75;;;;;;;3.15;85.12305;94419.69;;;;
2019/05/17 04:07:24;;;;;;;68.3;36.75;;;;;;;3.15;85.12305;94419.69;;;;
2019/05/17 04:08:25;;;;;;;68.3;36.75;;;;;;;3.15;85.12305;94419.69;;;;
2019/05/17 04:09:26;;;;;;;68.3;36.75;;;;;;;3.15;85.12305;94419.69;;;;
2019/05/17 04:10:27;;;;;;;68.3;36.75;;;;;;;3.15;85.12305;94419.69;;;;
2019/05/17 04:11:28;;;;;;;68.3;36.75;;;;;;;3.15;85.12305;94419.69;;;;
2019/05/17 04:12:29;;;;;;;68.3;36.75;;;;;;;3.15;85.12305;94419.69;;;;
2019/05/17 04:13:30;;;;;;;68.3;36.75;;;;;;;3.15;85.12305;94419.69;;;;
2019/05/17 04:14:31;;;;;;;68.3;36.75;;;;;;;3.15;85.12305;94419.69;;;;
2019/05/17 04:15:32;;;;;;;68.3;36.75;;;;;;;3.15;85.12305;94419.69;;;;
2019/05/17 04:16:34;;;;;;;68.3;36.75;;;;;;;3.15;85.12305;94419.69;;;;
2019/05/17 04:17:35;;;;;;;68.3;36.75;;;;;;;3.15;85.12305;94419.69;;;;
2019/05/17 04:18:36;;;;;;;68.3;36.75;;;;;;;3.15;85.12305;94419.69;;;;
2019/05/17 04:19:37;;;;;;;68.3;36.75;;;;;;;3.15;85.12305;94419.69;;;;
2019/05/17 04:20:38;;;;;;;68.3;36.75;;;;;;;3.15;85.12305;94419.69;;;;
2019/05/17 04:21:39;;;;;;;68.3;36.75;;;;;;;3.15;85.12305;94419.69;;;;
2019/05/17 04:22:40;;;;;;;68.3;36.75;;;;;;;3.15;85.12305;94419.69;;;;
2019/05/17 04:23:41;;;;;;;68.3;36.75;;;;;;;3.15;85.12305;94419.69;;;;
2019/05/17 04:24:42;;;;;;;68.3;36.75;;;;;;;3.15;85.12305;94419.69;;;;
2019/05/17 04:25:43;;;;;;;114.45;47.05;;;;;;;4.86;84.90234;94409.34;;;;
2019/05/17 04:26:44;;;;;;;114.45;47.05;;;;;;;4.86;84.90234;94409.34;;;;
2019/05/17 04:27:45;;;;;;;114.45;47.05;;;;;;;4.86;84.90234;94409.34;;;;
2019/05/17 04:28:46;;;;;;;114.45;47.05;;;;;;;4.86;84.90234;94409.34;;;;
2019/05/17 04:29:48;;;;;;;114.45;47.05;;;;;;;4.86;84.90234;94409.34;;;;
2019/05/17 04:30:49;;;;;;;114.45;47.05;;;;;;;4.86;84.90234;94409.34;;;;
2019/05/17 04:31:50;;;;;;;114.45;47.05;;;;;;;4.86;84.90234;94409.34;;;;
2019/05/17 04:32:51;;;;;;;114.45;47.05;;;;;;;4.86;84.90234;94409.34;;;;
2019/05/17 04:33:52;;;;;;;114.45;47.05;;;;;;;4.86;84.90234;94409.34;;;;
2019/05/17 04:34:53;;;;;;;114.45;47.05;;;;;;;4.86;84.90234;94409.34;;;;
2019/05/17 04:35:54;;;;;;;80.3;41.4;;;;;;;5.31;84.86621;94415.52;;;;
2019/05/17 04:36:55;;;;;;;80.3;41.4;;;;;;;5.31;84.86621;94415.52;;;;
2019/05/17 04:37:56;;;;;;;80.3;41.4;;;;;;;5.31;84.86621;94415.52;;;;
2019/05/17 04:38:57;;;;;;;80.3;41.4;;;;;;;5.31;84.86621;94415.52;;;;
2019/05/17 04:39:58;;;;;;;80.3;41.4;;;;;;;5.31;84.86621;94415.52;;;;
2019/05/17 04:40:59;;;;;;;80.3;41.4;;;;;;;5.31;84.86621;94415.52;;;;
2019/05/17 04:42:00;;;;;;;80.3;41.4;;;;;;;5.31;84.86621;94415.52;;;;
2019/05/17 04:43:01;;;;;;;80.3;41.4;;;;;;;5.31;84.86621;94415.52;;;;
2019/05/17 04:44:02;;;;;;;80.3;41.4;;;;;;;5.31;84.86621;94415.52;;;;
2019/05/17 04:45:04;;;;;;;80.3;41.4;;;;;;;5.31;84.86621;94415.52;;;;
2019/05/17 04:46:05;;;;;;;80.3;41.4;;;;;;;5.31;84.86621;94415.52;;;;
2019/05/17 04:47:06;;;;;;;80.3;41.4;;;;;;;5.31;84.86621;94415.52;;;;
2019/05/17 04:48:07;;;;;;;80.3;41.4;;;;;;;5.31;84.86621;94415.52;;;;
2019/05/17 04:49:08;;;;;;;80.3;41.4;;;;;;;5.31;84.86621;94415.52;;;;
2019/05/17 04:50:09;;;;;;;80.3;41.4;;;;;;;5.31;84.86621;94415.52;;;;
2019/05/17 04:51:10;;;;;;;80.3;41.4;;;;;;;5.31;84.86621;94415.52;;;;
2019/05/17 04:52:11;;;;;;;80.3;41.4;;;;;;;5.31;84.86621;94415.52;;;;
2019/05/17 04:53:12;;;;;;;80.3;41.4;;;;;;;5.31;84.86621;94415.52;;;;
2019/05/17 04:54:13;;;;;;;80.3;41.4;;;;;;;5.31;84.86621;94415.52;;;;
2019/05/17 04:55:14;;;;;;;80.3;41.4;;;;;;;5.31;84.86621;94415.52;;;;
2019/05/17 04:56:16;;;;;;;80.3;41.4;;;;;;;5.31;84.86621;94415.52;;;;
2019/05/17 04:57:17;;;;;;;50.3;31.3;;;;;;;6.13;84.94141;94408.64;;;;
2019/05/17 04:58:18;;;;;;;50.3;31.3;;;;;;;6.13;84.94141;94408.64;;;;
2019/05/17 04:59:19;;;;;;;50.3;31.3;;;;;;;6.13;84.94141;94408.64;;;;
2019/05/17 05:00:20;;;;;;;50.3;31.3;;;;;;;6.13;84.94141;94408.64;;;;
2019/05/17 05:01:21;;;;;;;50.3;31.3;;;;;;;6.13;84.94141;94408.64;;;;
2019/05/17 05:02:22;;;;;;;50.3;31.3;;;;;;;6.13;84.94141;94408.64;;;;
2019/05/17 05:03:23;;;;;;;50.3;31.3;;;;;;;6.13;84.94141;94408.64;;;;
2019/05/17 05:04:24;;;;;;;50.3;31.3;;;;;;;6.13;84.94141;94408.64;;;;
2019/05/17 05:05:25;;;;;;;50.3;31.3;;;;;;;6.13;84.94141;94408.64;;;;
2019/05/17 05:06:26;;;;;;;50.3;31.3;;;;;;;6.13;84.94141;94408.64;;;;
2019/05/17 05:07:28;;;;;;;50.3;31.3;;;;;;;6.13;84.94141;94408.64;;;;
2019/05/17 05:08:29;;;;;;;50.3;31.3;;;;;;;6.13;84.94141;94408.64;;;;
2019/05/17 05:09:30;;;;;;;50.3;31.3;;;;;;;6.13;84.94141;94408.64;;;;
2019/05/17 05:10:31;;;;;;;50.3;31.3;;;;;;;6.13;84.94141;94408.64;;;;
2019/05/17 05:11:32;;;;;;;50.3;31.3;;;;;;;6.13;84.94141;94408.64;;;;
2019/05/17 05:12:33;;;;;;;50.3;31.3;;;;;;;6.13;84.94141;94408.64;;;;
2019/05/17 05:13:34;;;;;;;50.3;31.3;;;;;;;6.13;84.94141;94408.64;;;;
2019/05/17 05:14:35;;;;;;;50.3;31.3;;;;;;;6.13;84.94141;94408.64;;;;
2019/05/17 05:15:36;;;;;;;50.3;31.3;;;;;;;6.13;84.94141;94408.64;;;;
2019/05/17 05:16:38;;;;;;;50.3;31.3;;;;;;;6.13;84.94141;94408.64;;;;
2019/05/17 05:17:39;;;;;;;50.3;31.3;;;;;;;6.13;84.94141;94408.64;;;;
2019/05/17 05:18:40;;;;;;;48.50001;31.5;;;;;;;7.04;84.6748;94411.58;;;;
2019/05/17 05:19:42;;;;;;;48.50001;31.5;;;;;;;7.04;84.6748;94411.58;;;;
2019/05/17 05:20:43;;;;;;;48.50001;31.5;;;;;;;7.04;84.6748;94411.58;;;;
2019/05/17 05:21:44;;;;;;;48.50001;31.5;;;;;;;7.04;84.6748;94411.58;;;;
2019/05/17 05:22:45;;;;;;;48.50001;31.5;;;;;;;7.04;84.6748;94411.58;;;;
2019/05/17 05:23:46;;;;;;;48.50001;31.5;;;;;;;7.04;84.6748;94411.58;;;;
2019/05/17 05:24:47;;;;;;;48.50001;31.5;;;;;;;7.04;84.6748;94411.58;;;;
2019/05/17 05:25:48;;;;;;;48.50001;31.5;;;;;;;7.04;84.6748;94411.58;;;;
2019/05/17 05:26:49;;;;;;;48.50001;31.5;;;;;;;7.04;84.6748;94411.58;;;;
2019/05/17 05:27:50;;;;;;;48.50001;31.5;;;;;;;7.04;84.6748;94411.58;;;;
2019/05/17 05:28:51;;;;;;;48.05;32.7;;;;;;;7.69;84.10352;94407.98;;;;
2019/05/17 05:29:52;;;;;;;48.05;32.7;;;;;;;7.69;84.10352;94407.98;;;;
2019/05/17 05:30:53;;;;;;;48.05;32.7;;;;;;;7.69;84.10352;94407.98;;;;
2019/05/17 05:31:54;;;;;;;48.05;32.7;;;;;;;7.69;84.10352;94407.98;;;;
2019/05/17 05:32:55;;;;;;;48.05;32.7;;;;;;;7.69;84.10352;94407.98;;;;
2019/05/17 05:33:56;;;;;;;48.05;32.7;;;;;;;7.69;84.10352;94407.98;;;;
2019/05/17 05:34:57;;;;;;;48.05;32.7;;;;;;;7.69;84.10352;94407.98;;;;
2019/05/17 05:35:59;;;;;;;48.05;32.7;;;;;;;7.69;84.10352;94407.98;;;;
2019/05/17 05:37:00;;;;;;;48.05;32.7;;;;;;;7.69;84.10352;94407.98;;;;
2019/05/17 05:38:01;;;;;;;48.05;32.7;;;;;;;7.69;84.10352;94407.98;;;;
2019/05/17 05:39:03;;;;;;;48.05;32.7;;;;;;;7.69;84.10352;94407.98;;;;
2019/05/17 05:40:05;;;;;;;45.95;31.35;;;;;;;8.23;83.74023;94393.1;;;;
2019/05/17 05:41:06;;;;;;;45.95;31.35;;;;;;;8.23;83.74023;94393.1;;;;
2019/05/17 05:42:07;;;;;;;45.95;31.35;;;;;;;8.23;83.74023;94393.1;;;;
2019/05/17 05:43:08;;;;;;;45.95;31.35;;;;;;;8.23;83.74023;94393.1;;;;
2019/05/17 05:44:09;;;;;;;45.95;31.35;;;;;;;8.23;83.74023;94393.1;;;;
2019/05/17 05:45:10;;;;;;;45.95;31.35;;;;;;;8.23;83.74023;94393.1;;;;
2019/05/17 05:46:11;;;;;;;45.95;31.35;;;;;;;8.23;83.74023;94393.1;;;;